sensor_id;sensor_type;location;lat;lon;timestamp;P1;durP1;ratioP1;P2;durP2;ratioP2
46899;SDS011;32647;49.382;7.078;2024-02-26T00:00:55;0.22;;;0.22;;
46899;SDS011;32647;49.382;7.078;2024-02-26T00:03:41;0.30;;;0.30;;
46899;SDS011;32647;49.382;7.078;2024-02-26T00:06:30;0.30;;;0.30;;
46899;SDS011;32647;49.382;7.078;2024-02-26T00:09:16;0.30;;;0.30;;
46899;SDS011;32647;49.382;7.078;2024-02-26T00:12:02;1.00;;;1.00;;
46899;SDS011;32647;49.382;7.078;2024-02-26T00:14:49;0.30;;;0.30;;
46899;SDS011;32647;49.382;7.078;2024-02-26T00:17:35;0.30;;;0.30;;
46899;SDS011;32647;49.382;7.078;2024-02-26T00:20:21;0.30;;;0.30;;
46899;SDS011;32647;49.382;7.078;2024-02-26T00:23:07;0.25;;;0.25;;
46899;SDS011;32647;49.382;7.078;2024-02-26T00:25:53;0.30;;;0.30;;
46899;SDS011;32647;49.382;7.078;2024-02-26T00:28:39;3.50;;;0.73;;
46899;SDS011;32647;49.382;7.078;2024-02-26T00:31:25;0.30;;;0.30;;
46899;SDS011;32647;49.382;7.078;2024-02-26T00:34:11;0.32;;;0.32;;
46899;SDS011;32647;49.382;7.078;2024-02-26T00:36:57;0.30;;;0.30;;
46899;SDS011;32647;49.382;7.078;2024-02-26T00:39:43;0.30;;;0.30;;
46899;SDS011;32647;49.382;7.078;2024-02-26T00:42:30;0.30;;;0.30;;
46899;SDS011;32647;49.382;7.078;2024-02-26T00:45:15;0.30;;;0.30;;
46899;SDS011;32647;49.382;7.078;2024-02-26T00:48:01;0.30;;;0.30;;
46899;SDS011;32647;49.382;7.078;2024-02-26T00:50:50;0.30;;;0.30;;
46899;SDS011;32647;49.382;7.078;2024-02-26T00:53:36;0.30;;;0.30;;
46899;SDS011;32647;49.382;7.078;2024-02-26T00:56:22;0.40;;;0.40;;
46899;SDS011;32647;49.382;7.078;2024-02-26T00:59:08;0.52;;;0.52;;
46899;SDS011;32647;49.382;7.078;2024-02-26T01:01:54;1.05;;;1.00;;
46899;SDS011;32647;49.382;7.078;2024-02-26T01:04:40;0.30;;;0.30;;
46899;SDS011;32647;49.382;7.078;2024-02-26T01:07:26;0.30;;;0.30;;
46899;SDS011;32647;49.382;7.078;2024-02-26T01:10:12;0.30;;;0.30;;
46899;SDS011;32647;49.382;7.078;2024-02-26T01:12:58;0.38;;;0.38;;
46899;SDS011;32647;49.382;7.078;2024-02-26T01:15:44;0.43;;;0.43;;
46899;SDS011;32647;49.382;7.078;2024-02-26T01:18:30;0.30;;;0.30;;
46899;SDS011;32647;49.382;7.078;2024-02-26T01:21:15;12.55;;;3.88;;
46899;SDS011;32647;49.382;7.078;2024-02-26T01:24:01;0.73;;;0.73;;
46899;SDS011;32647;49.382;7.078;2024-02-26T01:26:47;0.40;;;0.40;;
46899;SDS011;32647;49.382;7.078;2024-02-26T01:29:33;0.30;;;0.30;;
46899;SDS011;32647;49.382;7.078;2024-02-26T01:32:19;0.30;;;0.30;;
46899;SDS011;32647;49.382;7.078;2024-02-26T01:35:05;0.30;;;0.30;;
46899;SDS011;32647;49.382;7.078;2024-02-26T01:37:55;0.75;;;0.57;;
46899;SDS011;32647;49.382;7.078;2024-02-26T01:40:42;0.35;;;0.35;;
46899;SDS011;32647;49.382;7.078;2024-02-26T01:43:27;0.50;;;0.50;;
46899;SDS011;32647;49.382;7.078;2024-02-26T01:46:14;0.55;;;0.55;;
46899;SDS011;32647;49.382;7.078;2024-02-26T01:49:01;0.30;;;0.30;;
46899;SDS011;32647;49.382;7.078;2024-02-26T01:51:48;0.93;;;0.93;;
46899;SDS011;32647;49.382;7.078;2024-02-26T01:54:34;0.30;;;0.30;;
46899;SDS011;32647;49.382;7.078;2024-02-26T01:57:23;0.30;;;0.30;;
46899;SDS011;32647;49.382;7.078;2024-02-26T02:00:09;1.02;;;0.57;;
46899;SDS011;32647;49.382;7.078;2024-02-26T02:02:55;0.52;;;0.52;;
46899;SDS011;32647;49.382;7.078;2024-02-26T02:05:41;0.30;;;0.30;;
46899;SDS011;32647;49.382;7.078;2024-02-26T02:08:28;2.55;;;1.25;;
46899;SDS011;32647;49.382;7.078;2024-02-26T02:11:14;1.08;;;0.50;;
46899;SDS011;32647;49.382;7.078;2024-02-26T02:14:00;2.83;;;0.60;;
46899;SDS011;32647;49.382;7.078;2024-02-26T02:16:47;0.30;;;0.30;;
46899;SDS011;32647;49.382;7.078;2024-02-26T02:19:33;0.30;;;0.30;;
46899;SDS011;32647;49.382;7.078;2024-02-26T02:22:18;0.65;;;0.65;;
46899;SDS011;32647;49.382;7.078;2024-02-26T02:25:04;0.30;;;0.30;;
46899;SDS011;32647;49.382;7.078;2024-02-26T02:27:51;0.30;;;0.30;;
46899;SDS011;32647;49.382;7.078;2024-02-26T02:30:40;0.40;;;0.40;;
46899;SDS011;32647;49.382;7.078;2024-02-26T02:33:27;0.30;;;0.30;;
46899;SDS011;32647;49.382;7.078;2024-02-26T02:36:13;0.38;;;0.38;;
46899;SDS011;32647;49.382;7.078;2024-02-26T02:38:59;0.40;;;0.40;;
46899;SDS011;32647;49.382;7.078;2024-02-26T02:41:44;0.40;;;0.40;;
46899;SDS011;32647;49.382;7.078;2024-02-26T02:44:30;0.60;;;0.60;;
46899;SDS011;32647;49.382;7.078;2024-02-26T02:47:16;0.57;;;0.57;;
46899;SDS011;32647;49.382;7.078;2024-02-26T02:50:02;0.35;;;0.35;;
46899;SDS011;32647;49.382;7.078;2024-02-26T02:52:48;0.40;;;0.40;;
46899;SDS011;32647;49.382;7.078;2024-02-26T02:55:35;0.40;;;0.40;;
46899;SDS011;32647;49.382;7.078;2024-02-26T02:58:21;0.38;;;0.38;;
46899;SDS011;32647;49.382;7.078;2024-02-26T03:01:07;0.40;;;0.40;;
46899;SDS011;32647;49.382;7.078;2024-02-26T03:03:53;0.50;;;0.50;;
46899;SDS011;32647;49.382;7.078;2024-02-26T03:06:39;0.30;;;0.30;;
46899;SDS011;32647;49.382;7.078;2024-02-26T03:09:25;0.32;;;0.32;;
46899;SDS011;32647;49.382;7.078;2024-02-26T03:12:11;0.52;;;0.52;;
46899;SDS011;32647;49.382;7.078;2024-02-26T03:14:57;0.40;;;0.40;;
46899;SDS011;32647;49.382;7.078;2024-02-26T03:17:43;0.40;;;0.40;;
46899;SDS011;32647;49.382;7.078;2024-02-26T03:20:28;0.40;;;0.40;;
46899;SDS011;32647;49.382;7.078;2024-02-26T03:23:14;0.50;;;0.50;;
46899;SDS011;32647;49.382;7.078;2024-02-26T03:26:02;0.40;;;0.40;;
46899;SDS011;32647;49.382;7.078;2024-02-26T03:28:51;0.50;;;0.50;;
46899;SDS011;32647;49.382;7.078;2024-02-26T03:31:37;0.40;;;0.40;;
46899;SDS011;32647;49.382;7.078;2024-02-26T03:34:23;0.60;;;0.60;;
46899;SDS011;32647;49.382;7.078;2024-02-26T03:37:09;0.60;;;0.60;;
46899;SDS011;32647;49.382;7.078;2024-02-26T03:39:56;0.40;;;0.40;;
46899;SDS011;32647;49.382;7.078;2024-02-26T03:42:43;0.40;;;0.40;;
46899;SDS011;32647;49.382;7.078;2024-02-26T03:45:29;0.55;;;0.55;;
46899;SDS011;32647;49.382;7.078;2024-02-26T03:48:15;0.60;;;0.60;;
46899;SDS011;32647;49.382;7.078;2024-02-26T03:51:01;0.77;;;0.77;;
46899;SDS011;32647;49.382;7.078;2024-02-26T03:53:47;0.50;;;0.50;;
46899;SDS011;32647;49.382;7.078;2024-02-26T03:56:33;0.50;;;0.50;;
46899;SDS011;32647;49.382;7.078;2024-02-26T03:59:18;0.60;;;0.60;;
46899;SDS011;32647;49.382;7.078;2024-02-26T04:02:05;0.60;;;0.60;;
46899;SDS011;32647;49.382;7.078;2024-02-26T04:04:51;0.65;;;0.65;;
46899;SDS011;32647;49.382;7.078;2024-02-26T04:07:37;0.60;;;0.60;;
46899;SDS011;32647;49.382;7.078;2024-02-26T04:10:23;0.50;;;0.50;;
46899;SDS011;32647;49.382;7.078;2024-02-26T04:13:09;0.70;;;0.70;;
46899;SDS011;32647;49.382;7.078;2024-02-26T04:15:55;0.50;;;0.50;;
46899;SDS011;32647;49.382;7.078;2024-02-26T04:18:41;0.60;;;0.60;;
46899;SDS011;32647;49.382;7.078;2024-02-26T04:21:27;0.82;;;0.82;;
46899;SDS011;32647;49.382;7.078;2024-02-26T04:24:13;0.57;;;0.57;;
46899;SDS011;32647;49.382;7.078;2024-02-26T04:26:59;0.60;;;0.60;;
46899;SDS011;32647;49.382;7.078;2024-02-26T04:29:45;0.60;;;0.60;;
46899;SDS011;32647;49.382;7.078;2024-02-26T04:32:31;0.80;;;0.80;;
46899;SDS011;32647;49.382;7.078;2024-02-26T04:35:17;0.60;;;0.60;;
46899;SDS011;32647;49.382;7.078;2024-02-26T04:38:03;1.30;;;0.82;;
46899;SDS011;32647;49.382;7.078;2024-02-26T04:40:49;0.60;;;0.60;;
46899;SDS011;32647;49.382;7.078;2024-02-26T04:43:35;0.73;;;0.73;;
46899;SDS011;32647;49.382;7.078;2024-02-26T04:46:26;0.50;;;0.50;;
46899;SDS011;32647;49.382;7.078;2024-02-26T04:49:13;0.50;;;0.50;;
46899;SDS011;32647;49.382;7.078;2024-02-26T04:51:59;0.60;;;0.60;;
46899;SDS011;32647;49.382;7.078;2024-02-26T04:54:45;0.50;;;0.50;;
46899;SDS011;32647;49.382;7.078;2024-02-26T04:57:31;0.90;;;0.90;;
46899;SDS011;32647;49.382;7.078;2024-02-26T05:00:17;0.60;;;0.60;;
46899;SDS011;32647;49.382;7.078;2024-02-26T05:03:03;0.60;;;0.60;;
46899;SDS011;32647;49.382;7.078;2024-02-26T05:05:49;0.93;;;0.93;;
46899;SDS011;32647;49.382;7.078;2024-02-26T05:08:35;0.85;;;0.85;;
46899;SDS011;32647;49.382;7.078;2024-02-26T05:11:22;1.23;;;1.23;;
46899;SDS011;32647;49.382;7.078;2024-02-26T05:14:08;0.85;;;0.85;;
46899;SDS011;32647;49.382;7.078;2024-02-26T05:16:55;0.60;;;0.60;;
46899;SDS011;32647;49.382;7.078;2024-02-26T05:19:41;0.70;;;0.70;;
46899;SDS011;32647;49.382;7.078;2024-02-26T05:22:27;1.25;;;1.23;;
46899;SDS011;32647;49.382;7.078;2024-02-26T05:25:16;0.80;;;0.80;;
46899;SDS011;32647;49.382;7.078;2024-02-26T05:28:02;0.82;;;0.82;;
46899;SDS011;32647;49.382;7.078;2024-02-26T05:30:48;0.80;;;0.80;;
46899;SDS011;32647;49.382;7.078;2024-02-26T05:33:34;0.70;;;0.70;;
46899;SDS011;32647;49.382;7.078;2024-02-26T05:36:20;0.80;;;0.80;;
46899;SDS011;32647;49.382;7.078;2024-02-26T05:39:07;0.80;;;0.80;;
46899;SDS011;32647;49.382;7.078;2024-02-26T05:41:53;0.90;;;0.90;;
46899;SDS011;32647;49.382;7.078;2024-02-26T05:44:39;0.70;;;0.70;;
46899;SDS011;32647;49.382;7.078;2024-02-26T05:47:25;0.90;;;0.90;;
46899;SDS011;32647;49.382;7.078;2024-02-26T05:50:11;0.90;;;0.90;;
46899;SDS011;32647;49.382;7.078;2024-02-26T05:52:58;0.93;;;0.93;;
46899;SDS011;32647;49.382;7.078;2024-02-26T05:55:43;0.68;;;0.68;;
46899;SDS011;32647;49.382;7.078;2024-02-26T05:58:29;0.77;;;0.77;;
46899;SDS011;32647;49.382;7.078;2024-02-26T06:01:16;0.70;;;0.70;;
46899;SDS011;32647;49.382;7.078;2024-02-26T06:04:02;0.70;;;0.70;;
46899;SDS011;32647;49.382;7.078;2024-02-26T06:06:48;0.80;;;0.80;;
46899;SDS011;32647;49.382;7.078;2024-02-26T06:09:35;0.80;;;0.80;;
46899;SDS011;32647;49.382;7.078;2024-02-26T06:12:21;0.80;;;0.80;;
46899;SDS011;32647;49.382;7.078;2024-02-26T06:15:07;0.70;;;0.70;;
46899;SDS011;32647;49.382;7.078;2024-02-26T06:17:54;1.55;;;1.25;;
46899;SDS011;32647;49.382;7.078;2024-02-26T06:20:40;1.08;;;1.08;;
46899;SDS011;32647;49.382;7.078;2024-02-26T06:23:26;1.35;;;1.30;;
46899;SDS011;32647;49.382;7.078;2024-02-26T06:26:12;0.90;;;0.90;;
46899;SDS011;32647;49.382;7.078;2024-02-26T06:28:58;1.02;;;1.02;;
46899;SDS011;32647;49.382;7.078;2024-02-26T06:31:44;1.00;;;1.00;;
46899;SDS011;32647;49.382;7.078;2024-02-26T06:34:30;1.10;;;1.10;;
46899;SDS011;32647;49.382;7.078;2024-02-26T06:37:16;1.20;;;1.20;;
46899;SDS011;32647;49.382;7.078;2024-02-26T06:40:02;1.25;;;1.15;;
46899;SDS011;32647;49.382;7.078;2024-02-26T06:42:49;1.35;;;1.35;;
46899;SDS011;32647;49.382;7.078;2024-02-26T06:45:35;1.00;;;1.00;;
46899;SDS011;32647;49.382;7.078;2024-02-26T06:48:22;1.63;;;1.30;;
46899;SDS011;32647;49.382;7.078;2024-02-26T06:51:09;1.05;;;1.05;;
46899;SDS011;32647;49.382;7.078;2024-02-26T06:53:55;1.20;;;1.20;;
46899;SDS011;32647;49.382;7.078;2024-02-26T06:56:40;1.17;;;1.17;;
46899;SDS011;32647;49.382;7.078;2024-02-26T06:59:26;1.10;;;1.10;;
46899;SDS011;32647;49.382;7.078;2024-02-26T07:02:16;1.05;;;1.05;;
46899;SDS011;32647;49.382;7.078;2024-02-26T07:05:02;1.20;;;1.20;;
46899;SDS011;32647;49.382;7.078;2024-02-26T07:07:48;1.10;;;1.10;;
46899;SDS011;32647;49.382;7.078;2024-02-26T07:10:34;1.20;;;1.20;;
46899;SDS011;32647;49.382;7.078;2024-02-26T07:13:20;1.25;;;1.25;;
46899;SDS011;32647;49.382;7.078;2024-02-26T07:16:08;1.10;;;1.10;;
46899;SDS011;32647;49.382;7.078;2024-02-26T07:18:55;1.20;;;1.20;;
46899;SDS011;32647;49.382;7.078;2024-02-26T07:21:41;1.58;;;1.48;;
46899;SDS011;32647;49.382;7.078;2024-02-26T07:24:27;1.10;;;1.10;;
46899;SDS011;32647;49.382;7.078;2024-02-26T07:27:13;1.20;;;1.20;;
46899;SDS011;32647;49.382;7.078;2024-02-26T07:29:59;1.10;;;1.10;;
46899;SDS011;32647;49.382;7.078;2024-02-26T07:32:45;1.10;;;1.10;;
46899;SDS011;32647;49.382;7.078;2024-02-26T07:35:31;1.00;;;1.00;;
46899;SDS011;32647;49.382;7.078;2024-02-26T07:38:18;1.00;;;1.00;;
46899;SDS011;32647;49.382;7.078;2024-02-26T07:41:04;1.30;;;1.30;;
46899;SDS011;32647;49.382;7.078;2024-02-26T07:43:50;1.30;;;1.30;;
46899;SDS011;32647;49.382;7.078;2024-02-26T07:46:36;1.20;;;1.20;;
46899;SDS011;32647;49.382;7.078;2024-02-26T07:49:22;1.40;;;1.40;;
46899;SDS011;32647;49.382;7.078;2024-02-26T07:52:08;1.27;;;1.27;;
46899;SDS011;32647;49.382;7.078;2024-02-26T07:54:54;1.20;;;1.20;;
46899;SDS011;32647;49.382;7.078;2024-02-26T07:57:43;1.30;;;1.30;;
46899;SDS011;32647;49.382;7.078;2024-02-26T08:00:29;1.73;;;1.63;;
46899;SDS011;32647;49.382;7.078;2024-02-26T08:03:15;1.42;;;1.42;;
46899;SDS011;32647;49.382;7.078;2024-02-26T08:06:01;1.30;;;1.30;;
46899;SDS011;32647;49.382;7.078;2024-02-26T08:08:47;1.70;;;1.70;;
46899;SDS011;32647;49.382;7.078;2024-02-26T08:11:33;1.63;;;1.63;;
46899;SDS011;32647;49.382;7.078;2024-02-26T08:14:19;1.50;;;1.50;;
46899;SDS011;32647;49.382;7.078;2024-02-26T08:17:05;1.40;;;1.40;;
46899;SDS011;32647;49.382;7.078;2024-02-26T08:19:51;1.40;;;1.40;;
46899;SDS011;32647;49.382;7.078;2024-02-26T08:22:37;1.10;;;1.10;;
46899;SDS011;32647;49.382;7.078;2024-02-26T08:25:24;1.10;;;1.10;;
46899;SDS011;32647;49.382;7.078;2024-02-26T08:28:10;0.90;;;0.90;;
46899;SDS011;32647;49.382;7.078;2024-02-26T08:30:58;1.20;;;1.20;;
46899;SDS011;32647;49.382;7.078;2024-02-26T08:33:44;1.05;;;1.05;;
46899;SDS011;32647;49.382;7.078;2024-02-26T08:36:31;1.35;;;1.35;;
46899;SDS011;32647;49.382;7.078;2024-02-26T08:39:18;1.48;;;1.48;;
46899;SDS011;32647;49.382;7.078;2024-02-26T08:42:04;1.50;;;1.50;;
46899;SDS011;32647;49.382;7.078;2024-02-26T08:44:50;1.77;;;1.75;;
46899;SDS011;32647;49.382;7.078;2024-02-26T08:47:36;1.58;;;1.52;;
46899;SDS011;32647;49.382;7.078;2024-02-26T08:50:22;1.30;;;1.30;;
46899;SDS011;32647;49.382;7.078;2024-02-26T08:53:08;1.83;;;1.73;;
46899;SDS011;32647;49.382;7.078;2024-02-26T08:55:54;1.30;;;1.30;;
46899;SDS011;32647;49.382;7.078;2024-02-26T08:58:40;1.40;;;1.40;;
46899;SDS011;32647;49.382;7.078;2024-02-26T09:01:26;0.90;;;0.90;;
46899;SDS011;32647;49.382;7.078;2024-02-26T09:04:12;3.40;;;2.40;;
46899;SDS011;32647;49.382;7.078;2024-02-26T09:06:58;1.60;;;1.60;;
46899;SDS011;32647;49.382;7.078;2024-02-26T09:09:44;1.67;;;1.65;;
46899;SDS011;32647;49.382;7.078;2024-02-26T09:12:30;2.58;;;2.38;;
46899;SDS011;32647;49.382;7.078;2024-02-26T09:15:15;1.77;;;1.70;;
46899;SDS011;32647;49.382;7.078;2024-02-26T09:18:01;1.60;;;1.60;;
46899;SDS011;32647;49.382;7.078;2024-02-26T09:20:48;1.55;;;1.55;;
46899;SDS011;32647;49.382;7.078;2024-02-26T09:23:36;1.75;;;1.75;;
46899;SDS011;32647;49.382;7.078;2024-02-26T09:26:22;1.80;;;1.80;;
46899;SDS011;32647;49.382;7.078;2024-02-26T09:29:08;1.70;;;1.70;;
46899;SDS011;32647;49.382;7.078;2024-02-26T09:31:54;2.22;;;2.13;;
46899;SDS011;32647;49.382;7.078;2024-02-26T09:34:40;1.80;;;1.80;;
46899;SDS011;32647;49.382;7.078;2024-02-26T09:37:26;1.40;;;1.40;;
46899;SDS011;32647;49.382;7.078;2024-02-26T09:40:12;1.20;;;1.20;;
46899;SDS011;32647;49.382;7.078;2024-02-26T09:43:01;2.30;;;2.17;;
46899;SDS011;32647;49.382;7.078;2024-02-26T09:45:51;0.90;;;0.90;;
46899;SDS011;32647;49.382;7.078;2024-02-26T09:48:39;1.00;;;1.00;;
46899;SDS011;32647;49.382;7.078;2024-02-26T09:51:25;1.00;;;1.00;;
46899;SDS011;32647;49.382;7.078;2024-02-26T09:54:11;0.90;;;0.90;;
46899;SDS011;32647;49.382;7.078;2024-02-26T09:56:59;0.80;;;0.80;;
46899;SDS011;32647;49.382;7.078;2024-02-26T09:59:48;2.30;;;1.77;;
46899;SDS011;32647;49.382;7.078;2024-02-26T10:02:35;0.55;;;0.55;;
46899;SDS011;32647;49.382;7.078;2024-02-26T10:05:23;0.70;;;0.70;;
46899;SDS011;32647;49.382;7.078;2024-02-26T10:08:10;0.60;;;0.60;;
46899;SDS011;32647;49.382;7.078;2024-02-26T10:10:57;0.43;;;0.43;;
46899;SDS011;32647;49.382;7.078;2024-02-26T10:13:44;0.60;;;0.60;;
46899;SDS011;32647;49.382;7.078;2024-02-26T10:16:30;1.85;;;1.15;;
46899;SDS011;32647;49.382;7.078;2024-02-26T10:19:26;0.93;;;0.93;;
46899;SDS011;32647;49.382;7.078;2024-02-26T10:22:15;0.40;;;0.40;;
46899;SDS011;32647;49.382;7.078;2024-02-26T10:25:01;0.40;;;0.40;;
46899;SDS011;32647;49.382;7.078;2024-02-26T10:27:47;0.40;;;0.40;;
46899;SDS011;32647;49.382;7.078;2024-02-26T10:30:33;0.57;;;0.57;;
46899;SDS011;32647;49.382;7.078;2024-02-26T10:33:22;0.30;;;0.30;;
46899;SDS011;32647;49.382;7.078;2024-02-26T10:36:10;0.60;;;0.60;;
46899;SDS011;32647;49.382;7.078;2024-02-26T10:38:56;0.57;;;0.57;;
46899;SDS011;32647;49.382;7.078;2024-02-26T10:41:42;0.60;;;0.60;;
46899;SDS011;32647;49.382;7.078;2024-02-26T10:44:29;3.88;;;0.82;;
46899;SDS011;32647;49.382;7.078;2024-02-26T10:47:16;0.90;;;0.90;;
46899;SDS011;32647;49.382;7.078;2024-02-26T10:50:02;0.73;;;0.65;;
46899;SDS011;32647;49.382;7.078;2024-02-26T10:52:52;0.40;;;0.40;;
46899;SDS011;32647;49.382;7.078;2024-02-26T10:55:41;0.40;;;0.40;;
46899;SDS011;32647;49.382;7.078;2024-02-26T10:58:31;0.40;;;0.40;;
46899;SDS011;32647;49.382;7.078;2024-02-26T11:01:17;0.30;;;0.30;;
46899;SDS011;32647;49.382;7.078;2024-02-26T11:04:05;0.65;;;0.65;;
46899;SDS011;32647;49.382;7.078;2024-02-26T11:06:52;0.65;;;0.50;;
46899;SDS011;32647;49.382;7.078;2024-02-26T11:09:42;0.30;;;0.30;;
46899;SDS011;32647;49.382;7.078;2024-02-26T11:12:32;0.43;;;0.43;;
46899;SDS011;32647;49.382;7.078;2024-02-26T11:15:21;0.35;;;0.35;;
46899;SDS011;32647;49.382;7.078;2024-02-26T11:18:07;0.30;;;0.30;;
46899;SDS011;32647;49.382;7.078;2024-02-26T11:20:54;0.50;;;0.50;;
46899;SDS011;32647;49.382;7.078;2024-02-26T11:23:42;0.55;;;0.55;;
46899;SDS011;32647;49.382;7.078;2024-02-26T11:26:28;0.30;;;0.30;;
46899;SDS011;32647;49.382;7.078;2024-02-26T11:29:15;0.20;;;0.20;;
46899;SDS011;32647;49.382;7.078;2024-02-26T11:32:06;0.68;;;0.68;;
46899;SDS011;32647;49.382;7.078;2024-02-26T11:34:53;0.30;;;0.30;;
46899;SDS011;32647;49.382;7.078;2024-02-26T11:37:40;0.30;;;0.30;;
46899;SDS011;32647;49.382;7.078;2024-02-26T11:40:26;0.30;;;0.30;;
46899;SDS011;32647;49.382;7.078;2024-02-26T11:43:12;0.75;;;0.75;;
46899;SDS011;32647;49.382;7.078;2024-02-26T11:45:58;0.50;;;0.50;;
46899;SDS011;32647;49.382;7.078;2024-02-26T11:48:45;0.30;;;0.30;;
46899;SDS011;32647;49.382;7.078;2024-02-26T11:51:34;0.40;;;0.40;;
46899;SDS011;32647;49.382;7.078;2024-02-26T11:57:30;0.30;;;0.30;;
46899;SDS011;32647;49.382;7.078;2024-02-26T12:00:23;0.30;;;0.30;;
46899;SDS011;32647;49.382;7.078;2024-02-26T12:03:09;0.30;;;0.30;;
46899;SDS011;32647;49.382;7.078;2024-02-26T12:05:57;0.25;;;0.25;;
46899;SDS011;32647;49.382;7.078;2024-02-26T12:08:43;0.40;;;0.40;;
46899;SDS011;32647;49.382;7.078;2024-02-26T12:11:29;0.30;;;0.30;;
46899;SDS011;32647;49.382;7.078;2024-02-26T12:14:16;0.30;;;0.30;;
46899;SDS011;32647;49.382;7.078;2024-02-26T12:17:05;0.30;;;0.30;;
46899;SDS011;32647;49.382;7.078;2024-02-26T12:19:54;0.45;;;0.45;;
46899;SDS011;32647;49.382;7.078;2024-02-26T12:22:41;0.32;;;0.32;;
46899;SDS011;32647;49.382;7.078;2024-02-26T12:25:32;0.30;;;0.30;;
46899;SDS011;32647;49.382;7.078;2024-02-26T12:28:19;0.28;;;0.28;;
46899;SDS011;32647;49.382;7.078;2024-02-26T12:31:05;0.30;;;0.30;;
46899;SDS011;32647;49.382;7.078;2024-02-26T12:33:51;0.22;;;0.22;;
46899;SDS011;32647;49.382;7.078;2024-02-26T12:36:37;0.30;;;0.30;;
46899;SDS011;32647;49.382;7.078;2024-02-26T12:39:24;0.30;;;0.30;;
46899;SDS011;32647;49.382;7.078;2024-02-26T12:42:10;0.30;;;0.30;;
46899;SDS011;32647;49.382;7.078;2024-02-26T12:44:56;0.55;;;0.55;;
46899;SDS011;32647;49.382;7.078;2024-02-26T12:47:43;0.40;;;0.40;;
46899;SDS011;32647;49.382;7.078;2024-02-26T12:50:31;0.47;;;0.47;;
46899;SDS011;32647;49.382;7.078;2024-02-26T12:53:17;0.20;;;0.20;;
46899;SDS011;32647;49.382;7.078;2024-02-26T12:56:04;0.50;;;0.50;;
46899;SDS011;32647;49.382;7.078;2024-02-26T12:58:53;0.20;;;0.20;;
46899;SDS011;32647;49.382;7.078;2024-02-26T13:01:39;0.25;;;0.25;;
46899;SDS011;32647;49.382;7.078;2024-02-26T13:04:26;0.30;;;0.30;;
46899;SDS011;32647;49.382;7.078;2024-02-26T13:07:15;0.30;;;0.30;;
46899;SDS011;32647;49.382;7.078;2024-02-26T13:10:01;0.20;;;0.20;;
46899;SDS011;32647;49.382;7.078;2024-02-26T13:12:48;0.57;;;0.57;;
46899;SDS011;32647;49.382;7.078;2024-02-26T13:15:38;0.30;;;0.30;;
46899;SDS011;32647;49.382;7.078;2024-02-26T13:18:27;0.25;;;0.25;;
46899;SDS011;32647;49.382;7.078;2024-02-26T13:21:14;0.30;;;0.30;;
46899;SDS011;32647;49.382;7.078;2024-02-26T13:24:00;0.20;;;0.20;;
46899;SDS011;32647;49.382;7.078;2024-02-26T13:26:46;0.20;;;0.20;;
46899;SDS011;32647;49.382;7.078;2024-02-26T13:29:32;0.65;;;0.60;;
46899;SDS011;32647;49.382;7.078;2024-02-26T13:32:20;0.20;;;0.20;;
46899;SDS011;32647;49.382;7.078;2024-02-26T13:35:12;0.20;;;0.20;;
46899;SDS011;32647;49.382;7.078;2024-02-26T13:37:59;0.20;;;0.20;;
46899;SDS011;32647;49.382;7.078;2024-02-26T13:40:45;0.20;;;0.20;;
46899;SDS011;32647;49.382;7.078;2024-02-26T13:43:31;0.20;;;0.20;;
46899;SDS011;32647;49.382;7.078;2024-02-26T13:46:16;0.30;;;0.30;;
46899;SDS011;32647;49.382;7.078;2024-02-26T13:49:02;0.20;;;0.20;;
46899;SDS011;32647;49.382;7.078;2024-02-26T13:51:48;0.20;;;0.20;;
46899;SDS011;32647;49.382;7.078;2024-02-26T13:54:34;0.20;;;0.20;;
46899;SDS011;32647;49.382;7.078;2024-02-26T13:57:20;6.88;;;0.85;;
46899;SDS011;32647;49.382;7.078;2024-02-26T14:00:07;0.20;;;0.20;;
46899;SDS011;32647;49.382;7.078;2024-02-26T14:02:55;0.20;;;0.20;;
46899;SDS011;32647;49.382;7.078;2024-02-26T14:05:41;0.20;;;0.20;;
46899;SDS011;32647;49.382;7.078;2024-02-26T14:08:27;0.40;;;0.40;;
46899;SDS011;32647;49.382;7.078;2024-02-26T14:11:13;0.30;;;0.30;;
46899;SDS011;32647;49.382;7.078;2024-02-26T14:13:59;0.30;;;0.30;;
46899;SDS011;32647;49.382;7.078;2024-02-26T14:16:45;0.30;;;0.30;;
46899;SDS011;32647;49.382;7.078;2024-02-26T14:19:31;0.30;;;0.30;;
46899;SDS011;32647;49.382;7.078;2024-02-26T14:22:17;0.30;;;0.30;;
46899;SDS011;32647;49.382;7.078;2024-02-26T14:25:03;0.65;;;0.65;;
46899;SDS011;32647;49.382;7.078;2024-02-26T14:27:49;0.30;;;0.30;;
46899;SDS011;32647;49.382;7.078;2024-02-26T14:30:35;1.08;;;0.82;;
46899;SDS011;32647;49.382;7.078;2024-02-26T14:33:21;0.40;;;0.40;;
46899;SDS011;32647;49.382;7.078;2024-02-26T14:36:07;1.15;;;1.10;;
46899;SDS011;32647;49.382;7.078;2024-02-26T14:38:53;0.55;;;0.55;;
46899;SDS011;32647;49.382;7.078;2024-02-26T14:41:39;0.40;;;0.40;;
46899;SDS011;32647;49.382;7.078;2024-02-26T14:44:25;0.52;;;0.52;;
46899;SDS011;32647;49.382;7.078;2024-02-26T14:47:12;0.60;;;0.60;;
46899;SDS011;32647;49.382;7.078;2024-02-26T14:49:58;0.63;;;0.63;;
46899;SDS011;32647;49.382;7.078;2024-02-26T14:52:44;0.43;;;0.43;;
46899;SDS011;32647;49.382;7.078;2024-02-26T14:55:30;0.20;;;0.20;;
46899;SDS011;32647;49.382;7.078;2024-02-26T14:58:16;0.30;;;0.30;;
46899;SDS011;32647;49.382;7.078;2024-02-26T15:01:02;0.30;;;0.30;;
46899;SDS011;32647;49.382;7.078;2024-02-26T15:03:49;0.47;;;0.47;;
46899;SDS011;32647;49.382;7.078;2024-02-26T15:06:37;0.40;;;0.40;;
46899;SDS011;32647;49.382;7.078;2024-02-26T15:09:24;0.30;;;0.30;;
46899;SDS011;32647;49.382;7.078;2024-02-26T15:12:10;0.30;;;0.30;;
46899;SDS011;32647;49.382;7.078;2024-02-26T15:14:56;0.75;;;0.75;;
46899;SDS011;32647;49.382;7.078;2024-02-26T15:17:42;0.22;;;0.22;;
46899;SDS011;32647;49.382;7.078;2024-02-26T15:20:28;0.30;;;0.30;;
46899;SDS011;32647;49.382;7.078;2024-02-26T15:23:15;0.20;;;0.20;;
46899;SDS011;32647;49.382;7.078;2024-02-26T15:26:02;0.30;;;0.30;;
46899;SDS011;32647;49.382;7.078;2024-02-26T15:28:49;0.50;;;0.50;;
46899;SDS011;32647;49.382;7.078;2024-02-26T15:31:35;0.73;;;0.73;;
46899;SDS011;32647;49.382;7.078;2024-02-26T15:34:21;0.30;;;0.30;;
46899;SDS011;32647;49.382;7.078;2024-02-26T15:37:07;0.40;;;0.40;;
46899;SDS011;32647;49.382;7.078;2024-02-26T15:39:53;0.30;;;0.30;;
46899;SDS011;32647;49.382;7.078;2024-02-26T15:42:39;0.20;;;0.20;;
46899;SDS011;32647;49.382;7.078;2024-02-26T15:45:25;0.68;;;0.68;;
46899;SDS011;32647;49.382;7.078;2024-02-26T15:48:11;0.20;;;0.20;;
46899;SDS011;32647;49.382;7.078;2024-02-26T15:50:57;0.60;;;0.60;;
46899;SDS011;32647;49.382;7.078;2024-02-26T15:53:43;0.30;;;0.30;;
46899;SDS011;32647;49.382;7.078;2024-02-26T15:56:29;1.02;;;0.73;;
46899;SDS011;32647;49.382;7.078;2024-02-26T15:59:15;0.30;;;0.30;;
46899;SDS011;32647;49.382;7.078;2024-02-26T16:02:02;0.30;;;0.30;;
46899;SDS011;32647;49.382;7.078;2024-02-26T16:04:48;0.30;;;0.30;;
46899;SDS011;32647;49.382;7.078;2024-02-26T16:07:37;0.40;;;0.40;;
46899;SDS011;32647;49.382;7.078;2024-02-26T16:10:27;0.30;;;0.30;;
46899;SDS011;32647;49.382;7.078;2024-02-26T16:13:14;0.30;;;0.30;;
46899;SDS011;32647;49.382;7.078;2024-02-26T16:16:01;1.27;;;1.17;;
46899;SDS011;32647;49.382;7.078;2024-02-26T16:18:53;0.30;;;0.30;;
46899;SDS011;32647;49.382;7.078;2024-02-26T16:21:50;0.40;;;0.40;;
46899;SDS011;32647;49.382;7.078;2024-02-26T16:24:36;3.30;;;1.50;;
46899;SDS011;32647;49.382;7.078;2024-02-26T16:27:22;0.55;;;0.55;;
46899;SDS011;32647;49.382;7.078;2024-02-26T16:30:08;0.30;;;0.30;;
46899;SDS011;32647;49.382;7.078;2024-02-26T16:32:54;5.18;;;1.10;;
46899;SDS011;32647;49.382;7.078;2024-02-26T16:35:40;0.60;;;0.60;;
46899;SDS011;32647;49.382;7.078;2024-02-26T16:38:29;2.20;;;2.00;;
46899;SDS011;32647;49.382;7.078;2024-02-26T16:41:14;0.95;;;0.93;;
46899;SDS011;32647;49.382;7.078;2024-02-26T16:44:00;0.82;;;0.82;;
46899;SDS011;32647;49.382;7.078;2024-02-26T16:46:46;0.30;;;0.30;;